Annada, Missouri
Current Conditions -  °F | °C
As of 4:15 PM on Saturday 25 Oct 2014 (Local Time) from KPPQ Reporting Station
Clear Clear  
Wind Chill: 80°   Ceiling: Unl
Heat Index: 80°   Visibility: 10mi
Dew Point: 45°   Wind: 5mph
Humidity: 30%   Direction: 290°WNW
Pressure: 30.03"   Gusts: NA
Location:  39.26°N, 90.83°W
Report Text: KPPQ 252115Z AUTO 29004KT 10SM CLR 26/07 A3003 RMK AO2 T02640073
Loading
Personal Weather Stations






























Interactive Weather Map
Tropical Storm Tracking
New forecast layout! Learn more

10-Day Weather Forecast

Advertisements
Track Severe Weather on mobile